deformed-offering
Saratoga-Weather Station Historical Data
 
Daily Summary for July 19, 2024 Units:  English    Metric   Both
Daily Weekly Monthly Yearly
  Current: High: Low: Average:
Temperature: 65.6 °F 66.4 °F 58.9 °F 62 °F
Dew Point: 58.8 °F 59 °F 53.4 °F 55.8 °F
Humidity: 78.5% 85% 71.4% 80%
Wind Speed: 0.6mph 1mph 0mph 0mph
Wind Gust: 3mph 4mph - -
WindNE - - ENE
Pressure: 29.98 in 29.98 in 29.95 in -
Precipitation: 0.00 in      
 
 
Tabular Data for July 19, 2024
Time Temperature Dew Point Pressure Wind Wind Speed Wind Gust Humidity Rainfall Rate (Hourly) solar
00:09 66.4 °F 56.8 °F 29.98 in Calm     71.4% 0.00 in 0 W/m2
00:14 66.2 °F 56.9 °F 29.98 in Calm     72% 0.00 in 0 W/m2
00:19 66 °F 56.7 °F 29.98 in Calm   1.2 mph 72% 0.00 in 0 W/m2
00:24 66 °F 56.7 °F 29.98 in Calm   1 mph 72% 0.00 in 0 W/m2
00:29 65.8 °F 56.9 °F 29.98 in Calm     72.9% 0.00 in 0 W/m2
00:34 65.6 °F 56.8 °F 29.98 in Calm     73.2% 0.00 in 0 W/m2
00:39 65.5 °F 57 °F 29.98 in Calm     74% 0.00 in 0 W/m2
00:44 65.4 °F 57 °F 29.98 in Calm     74.2% 0.00 in 0 W/m2
00:49 65.2 °F 57.3 °F 29.98 in Calm     75.4% 0.00 in 0 W/m2
00:54 65.1 °F 57.3 °F 29.98 in Calm     76% 0.00 in 0 W/m2
00:59 64.9 °F 57.2 °F 29.98 in Calm     76% 0.00 in 0 W/m2
01:04 64.8 °F 57.2 °F 29.98 in Calm     76.6% 0.00 in 0 W/m2
01:09 64.6 °F 57.2 °F 29.98 in Calm     77% 0.00 in 0 W/m2
01:14 64.4 °F 57 °F 29.98 in Calm     77% 0.00 in 0 W/m2
01:19 64.3 °F 57.1 °F 29.98 in Calm     77.4% 0.00 in 0 W/m2
01:24 64.2 °F 57.2 °F 29.97 in Calm     78% 0.00 in 0 W/m2
01:29 64 °F 57 °F 29.97 in Calm     78% 0.00 in 0 W/m2
01:34 63.9 °F 56.9 °F 29.97 in Calm     78% 0.00 in 0 W/m2
01:39 63.9 °F 57 °F 29.97 in Calm     78.3% 0.00 in 0 W/m2
01:44 63.7 °F 57.1 °F 29.97 in Calm     79% 0.00 in 0 W/m2
01:49 63.6 °F 57 °F 29.97 in Calm     79% 0.00 in 0 W/m2
01:54 63.5 °F 56.9 °F 29.96 in Calm     79% 0.00 in 0 W/m2
01:59 63.3 °F 56.7 °F 29.96 in Calm     79% 0.00 in 0 W/m2
02:04 63.2 °F 56.8 °F 29.96 in Calm     79.6% 0.00 in 0 W/m2
02:09 63.1 °F 56.8 °F 29.96 in Calm     80% 0.00 in 0 W/m2
02:14 63 °F 56.7 °F 29.96 in Calm     80% 0.00 in 0 W/m2
02:19 62.8 °F 56.5 °F 29.96 in Calm     80% 0.00 in 0 W/m2
02:24 62.6 °F 56.3 °F 29.96 in Calm     80% 0.00 in 0 W/m2
02:29 62.5 °F 56.2 °F 29.96 in Calm     80% 0.00 in 0 W/m2
02:34 62.4 °F 56.1 °F 29.96 in Calm     80% 0.00 in 0 W/m2
02:39 62.3 °F 56 °F 29.96 in Calm     80% 0.00 in 0 W/m2
02:44 62.2 °F 56 °F 29.96 in Calm     80% 0.00 in 0 W/m2
02:49 62.1 °F 55.9 °F 29.95 in Calm     80% 0.00 in 0 W/m2
02:54 62 °F 55.9 °F 29.95 in Calm     80.2% 0.00 in 0 W/m2
02:59 61.9 °F 56 °F 29.95 in Calm     81% 0.00 in 0 W/m2
03:04 61.8 °F 55.9 °F 29.96 in Calm     81% 0.00 in 0 W/m2
03:09 61.8 °F 55.9 °F 29.96 in Calm     81% 0.00 in 0 W/m2
03:14 61.6 °F 55.7 °F 29.96 in Calm     81% 0.00 in 0 W/m2
03:19 61.6 °F 55.7 °F 29.96 in Calm     81% 0.00 in 0 W/m2
03:24 61.5 °F 55.6 °F 29.95 in Calm     80.9% 0.00 in 0 W/m2
03:29 61.3 °F 55.1 °F 29.95 in Calm     80% 0.00 in 0 W/m2
03:34 61.3 °F 55.1 °F 29.95 in Calm     80% 0.00 in 0 W/m2
03:39 61.2 °F 55 °F 29.96 in Calm     80% 0.00 in 0 W/m2
03:44 61 °F 54.5 °F 29.96 in Calm     79.1% 0.00 in 0 W/m2
03:49 60.9 °F 54.3 °F 29.96 in Calm     79% 0.00 in 0 W/m2
03:54 60.8 °F 54.2 °F 29.96 in Calm     79% 0.00 in 0 W/m2
03:59 60.7 °F 54.1 °F 29.96 in Calm     79% 0.00 in 0 W/m2
04:04 60.5 °F 54 °F 29.95 in Calm     78.8% 0.00 in 0 W/m2
04:09 60.4 °F 53.9 °F 29.95 in Calm     79% 0.00 in 0 W/m2
04:14 60.4 °F 53.9 °F 29.95 in Calm     79% 0.00 in 0 W/m2
04:19 60.3 °F 53.8 °F 29.95 in Calm     79% 0.00 in 0 W/m2
04:24 60.2 °F 53.9 °F 29.95 in Calm     79.6% 0.00 in 0 W/m2
04:29 60.2 °F 54 °F 29.95 in Calm     80% 0.00 in 0 W/m2
04:34 60.2 °F 54 °F 29.95 in Calm     80% 0.00 in 0 W/m2
04:39 60.2 °F 54.1 °F 29.96 in Calm     80.3% 0.00 in 0 W/m2
04:44 60.1 °F 54.2 °F 29.96 in Calm     81% 0.00 in 0 W/m2
04:49 60.1 °F 54.2 °F 29.95 in Calm     81% 0.00 in 0 W/m2
04:54 60.1 °F 54.2 °F 29.95 in Calm     81% 0.00 in 0 W/m2
04:59 59.9 °F 54.1 °F 29.96 in Calm     81% 0.00 in 0 W/m2
05:04 59.9 °F 54.1 °F 29.95 in Calm     81% 0.00 in 0 W/m2
05:09 59.8 °F 54 °F 29.96 in Calm     81% 0.00 in 0 W/m2
05:14 59.7 °F 53.9 °F 29.96 in Calm     81% 0.00 in 0 W/m2
05:19 59.6 °F 54 °F 29.96 in Calm     81.6% 0.00 in 0 W/m2
05:24 59.6 °F 54.1 °F 29.96 in Calm     82% 0.00 in 0 W/m2
05:29 59.6 °F 54.1 °F 29.96 in Calm     82% 0.00 in 0 W/m2
05:34 59.5 °F 54.3 °F 29.96 in Calm     82.9% 0.00 in 0 W/m2
05:39 59.5 °F 54.2 °F 29.96 in Calm     82.6% 0.00 in 0 W/m2
05:44 59.4 °F 53.9 °F 29.96 in Calm     82% 0.00 in 0 W/m2
05:49 59.3 °F 53.8 °F 29.95 in Calm     82% 0.00 in 0 W/m2
05:54 59.2 °F 53.7 °F 29.95 in Calm     82% 0.00 in 0 W/m2
05:59 59.2 °F 53.7 °F 29.95 in Calm     82.3% 0.00 in 0 W/m2
06:04 59 °F 53.8 °F 29.96 in Calm     82.9% 0.00 in 0 W/m2
06:09 59 °F 53.7 °F 29.96 in Calm     82.8% 0.00 in 0 W/m2
06:14 58.9 °F 53.4 °F 29.96 in Calm     82% 0.00 in 5 W/m2
06:19 58.9 °F 53.4 °F 29.96 in Calm     82.1% 0.00 in 25 W/m2
06:24 58.9 °F 53.7 °F 29.96 in Calm     83% 0.00 in 33 W/m2
06:29 58.9 °F 53.7 °F 29.96 in Calm     83% 0.00 in 40 W/m2
06:34 58.9 °F 53.7 °F 29.97 in Calm     83.1% 0.00 in 49 W/m2
06:39 59 °F 54.2 °F 29.97 in Calm     84% 0.00 in 70 W/m2
06:44 59.2 °F 54.7 °F 29.97 in Calm     84.9% 0.00 in 84 W/m2
06:49 59.4 °F 54.9 °F 29.97 in Calm     85% 0.00 in 99 W/m2
06:54 59.7 °F 55.1 °F 29.97 in Calm     84.6% 0.00 in 113 W/m2
06:59 60 °F 55.1 °F 29.97 in Calm     84% 0.00 in 125 W/m2
07:04 60.1 °F 55.2 °F 29.97 in Calm     84% 0.00 in 141 W/m2
07:09 60.3 °F 55.4 °F 29.97 in Calm     84% 0.00 in 157 W/m2
07:14 60.6 °F 55.7 °F 29.97 in Calm     84% 0.00 in 174 W/m2
07:19 60.8 °F 55.9 °F 29.97 in Calm     84% 0.00 in 188 W/m2
07:24 61.1 °F 56.5 °F 29.97 in Calm     84.7% 0.00 in 202 W/m2
07:29 61.4 °F 56.7 °F 29.97 in Calm     84.5% 0.00 in 218 W/m2
07:34 61.7 °F 56.8 °F 29.98 in Calm     84.2% 0.00 in 232 W/m2
07:39 62 °F 57.3 °F 29.98 in Calm   1.2 mph 84.7% 0.00 in 248 W/m2
07:44 62.5 °F 57.9 °F 29.98 in Calm   1 mph 84.8% 0.00 in 262 W/m2
07:49 63.1 °F 58.1 °F 29.98 in Calm     83.8% 0.00 in 276 W/m2
07:54 63.4 °F 57.9 °F 29.98 in Calm     82.4% 0.00 in 292 W/m2
07:59 63.6 °F 58 °F 29.98 in Calm     82% 0.00 in 308 W/m2
08:04 63.9 °F 58.3 °F 29.98 in Calm     82% 0.00 in 324 W/m2
08:09 64.1 °F 58.3 °F 29.98 in Calm     81.6% 0.00 in 338 W/m2
08:14 64.3 °F 58.4 °F 29.98 in Calm     81.3% 0.00 in 352 W/m2
08:19 64.6 °F 58.4 °F 29.98 in Calm     80.3% 0.00 in 366 W/m2
08:24 64.8 °F 58.5 °F 29.98 in Calm     80% 0.00 in 380 W/m2
08:29 65.1 °F 58.8 °F 29.98 in ENE 1 mph 4 mph 80% 0.00 in 394 W/m2
08:34 65.3 °F 59 °F 29.98 in ENE 0.8 mph 4 mph 80% 0.00 in 408 W/m2
08:39 65.6 °F 58.8 °F 29.98 in NE 0.6 mph 3 mph 78.5% 0.00 in 419 W/m2
Saratoga, California, USA
Compliments of Weather Underground - 6 mb

WU-history PHP script courtesy of Juneau County Weather and modified for WU/TWC API use by Saratoga-weather.org

This script set is available on GitHub.

deformed-offering